sensor_id;sensor_type;location;lat;lon;timestamp;temperature;humidity
53876;DHT22;39789;53.216;5.624;2023-07-16T00:00:51;17.40;86.70
53876;DHT22;39789;53.216;5.624;2023-07-16T00:03:16;17.40;86.90
53876;DHT22;39789;53.216;5.624;2023-07-16T00:05:42;18.00;87.50
53876;DHT22;39789;53.216;5.624;2023-07-16T00:08:08;17.40;87.50
53876;DHT22;39789;53.216;5.624;2023-07-16T00:10:36;17.30;88.10
53876;DHT22;39789;53.216;5.624;2023-07-16T00:13:05;17.30;88.20
53876;DHT22;39789;53.216;5.624;2023-07-16T00:15:31;17.30;88.40
53876;DHT22;39789;53.216;5.624;2023-07-16T00:17:56;17.30;88.50
53876;DHT22;39789;53.216;5.624;2023-07-16T00:20:22;17.30;88.60
53876;DHT22;39789;53.216;5.624;2023-07-16T00:22:51;17.60;89.00
53876;DHT22;39789;53.216;5.624;2023-07-16T00:25:17;17.30;89.00
53876;DHT22;39789;53.216;5.624;2023-07-16T00:27:42;17.30;89.30
53876;DHT22;39789;53.216;5.624;2023-07-16T00:30:08;17.30;89.30
53876;DHT22;39789;53.216;5.624;2023-07-16T00:32:34;17.30;89.40
53876;DHT22;39789;53.216;5.624;2023-07-16T00:35:01;17.30;89.20
53876;DHT22;39789;53.216;5.624;2023-07-16T00:37:27;18.00;89.60
53876;DHT22;39789;53.216;5.624;2023-07-16T00:39:52;17.40;90.00
53876;DHT22;39789;53.216;5.624;2023-07-16T00:42:18;17.40;89.20
53876;DHT22;39789;53.216;5.624;2023-07-16T00:44:43;17.40;89.10
53876;DHT22;39789;53.216;5.624;2023-07-16T00:47:09;17.40;89.30
53876;DHT22;39789;53.216;5.624;2023-07-16T00:49:36;17.40;89.40
53876;DHT22;39789;53.216;5.624;2023-07-16T00:52:02;17.40;89.50
53876;DHT22;39789;53.216;5.624;2023-07-16T00:54:30;17.40;89.50
53876;DHT22;39789;53.216;5.624;2023-07-16T00:56:56;17.40;89.50
53876;DHT22;39789;53.216;5.624;2023-07-16T00:59:22;17.40;89.30
53876;DHT22;39789;53.216;5.624;2023-07-16T01:01:47;17.40;89.20
53876;DHT22;39789;53.216;5.624;2023-07-16T01:04:13;17.30;89.30
53876;DHT22;39789;53.216;5.624;2023-07-16T01:06:41;17.40;89.60
53876;DHT22;39789;53.216;5.624;2023-07-16T01:09:18;17.40;89.50
53876;DHT22;39789;53.216;5.624;2023-07-16T01:11:45;17.30;89.40
53876;DHT22;39789;53.216;5.624;2023-07-16T01:14:12;17.40;89.30
53876;DHT22;39789;53.216;5.624;2023-07-16T01:16:40;17.30;89.20
53876;DHT22;39789;53.216;5.624;2023-07-16T01:19:06;17.40;89.20
53876;DHT22;39789;53.216;5.624;2023-07-16T01:24:44;17.30;89.80
53876;DHT22;39789;53.216;5.624;2023-07-16T01:30:05;17.40;88.70
53876;DHT22;39789;53.216;5.624;2023-07-16T01:32:35;17.50;88.40
53876;DHT22;39789;53.216;5.624;2023-07-16T01:35:02;17.60;88.30
53876;DHT22;39789;53.216;5.624;2023-07-16T01:37:28;17.60;88.60
53876;DHT22;39789;53.216;5.624;2023-07-16T01:39:54;17.60;88.40
53876;DHT22;39789;53.216;5.624;2023-07-16T01:42:20;17.60;88.40
53876;DHT22;39789;53.216;5.624;2023-07-16T01:44:45;17.60;88.30
53876;DHT22;39789;53.216;5.624;2023-07-16T01:47:28;17.60;88.50
53876;DHT22;39789;53.216;5.624;2023-07-16T01:49:57;17.60;88.70
53876;DHT22;39789;53.216;5.624;2023-07-16T01:52:22;17.60;88.60
53876;DHT22;39789;53.216;5.624;2023-07-16T01:54:48;18.20;88.90
53876;DHT22;39789;53.216;5.624;2023-07-16T01:57:13;17.70;88.70
53876;DHT22;39789;53.216;5.624;2023-07-16T01:59:39;17.70;88.60
53876;DHT22;39789;53.216;5.624;2023-07-16T02:02:05;17.70;88.60
53876;DHT22;39789;53.216;5.624;2023-07-16T02:04:31;17.60;88.70
53876;DHT22;39789;53.216;5.624;2023-07-16T02:06:56;17.60;88.60
53876;DHT22;39789;53.216;5.624;2023-07-16T02:09:22;17.60;88.90
53876;DHT22;39789;53.216;5.624;2023-07-16T02:11:48;17.50;89.10
53876;DHT22;39789;53.216;5.624;2023-07-16T02:14:13;17.60;89.40
53876;DHT22;39789;53.216;5.624;2023-07-16T02:16:41;17.60;89.40
53876;DHT22;39789;53.216;5.624;2023-07-16T02:19:07;17.50;89.30
53876;DHT22;39789;53.216;5.624;2023-07-16T02:21:32;17.50;89.50
53876;DHT22;39789;53.216;5.624;2023-07-16T02:23:58;17.50;89.80
53876;DHT22;39789;53.216;5.624;2023-07-16T02:26:24;17.50;89.90
53876;DHT22;39789;53.216;5.624;2023-07-16T02:28:49;17.50;89.80
53876;DHT22;39789;53.216;5.624;2023-07-16T02:31:15;17.50;89.90
53876;DHT22;39789;53.216;5.624;2023-07-16T02:33:40;17.50;89.80
53876;DHT22;39789;53.216;5.624;2023-07-16T02:36:06;17.50;89.50
53876;DHT22;39789;53.216;5.624;2023-07-16T02:38:32;17.50;89.60
53876;DHT22;39789;53.216;5.624;2023-07-16T02:40:57;17.50;89.40
53876;DHT22;39789;53.216;5.624;2023-07-16T02:43:23;17.50;89.50
53876;DHT22;39789;53.216;5.624;2023-07-16T02:45:48;17.80;89.90
53876;DHT22;39789;53.216;5.624;2023-07-16T02:48:14;17.40;90.00
53876;DHT22;39789;53.216;5.624;2023-07-16T02:50:40;17.40;90.10
53876;DHT22;39789;53.216;5.624;2023-07-16T02:53:06;17.40;90.30
53876;DHT22;39789;53.216;5.624;2023-07-16T02:55:32;17.40;90.40
53876;DHT22;39789;53.216;5.624;2023-07-16T02:57:58;17.40;90.70
53876;DHT22;39789;53.216;5.624;2023-07-16T03:00:23;17.40;90.80
53876;DHT22;39789;53.216;5.624;2023-07-16T03:02:49;17.40;91.10
53876;DHT22;39789;53.216;5.624;2023-07-16T03:05:18;17.30;91.10
53876;DHT22;39789;53.216;5.624;2023-07-16T03:07:44;17.40;91.30
53876;DHT22;39789;53.216;5.624;2023-07-16T03:10:09;17.30;91.50
53876;DHT22;39789;53.216;5.624;2023-07-16T03:12:35;17.30;91.60
53876;DHT22;39789;53.216;5.624;2023-07-16T03:15:01;17.30;91.60
53876;DHT22;39789;53.216;5.624;2023-07-16T03:17:26;17.30;91.70
53876;DHT22;39789;53.216;5.624;2023-07-16T03:19:52;17.30;91.70
53876;DHT22;39789;53.216;5.624;2023-07-16T03:22:17;17.30;91.60
53876;DHT22;39789;53.216;5.624;2023-07-16T03:24:43;17.40;91.50
53876;DHT22;39789;53.216;5.624;2023-07-16T03:27:08;17.50;91.40
53876;DHT22;39789;53.216;5.624;2023-07-16T03:29:34;17.40;91.20
53876;DHT22;39789;53.216;5.624;2023-07-16T03:32:00;17.40;91.10
53876;DHT22;39789;53.216;5.624;2023-07-16T03:34:25;17.40;91.00
53876;DHT22;39789;53.216;5.624;2023-07-16T03:36:51;17.40;91.10
53876;DHT22;39789;53.216;5.624;2023-07-16T03:39:17;17.40;91.10
53876;DHT22;39789;53.216;5.624;2023-07-16T03:41:42;17.50;91.10
53876;DHT22;39789;53.216;5.624;2023-07-16T03:44:08;17.50;91.10
53876;DHT22;39789;53.216;5.624;2023-07-16T03:46:33;17.50;91.10
53876;DHT22;39789;53.216;5.624;2023-07-16T03:48:59;17.50;91.20
53876;DHT22;39789;53.216;5.624;2023-07-16T03:51:25;17.50;91.40
53876;DHT22;39789;53.216;5.624;2023-07-16T03:53:50;17.50;91.50
53876;DHT22;39789;53.216;5.624;2023-07-16T03:56:16;17.40;91.70
53876;DHT22;39789;53.216;5.624;2023-07-16T03:58:44;17.40;91.80
53876;DHT22;39789;53.216;5.624;2023-07-16T04:01:10;17.30;92.10
53876;DHT22;39789;53.216;5.624;2023-07-16T04:03:35;17.30;92.30
53876;DHT22;39789;53.216;5.624;2023-07-16T04:06:08;17.30;92.00
53876;DHT22;39789;53.216;5.624;2023-07-16T04:08:35;17.30;92.10
53876;DHT22;39789;53.216;5.624;2023-07-16T04:11:01;17.30;92.10
53876;DHT22;39789;53.216;5.624;2023-07-16T04:13:27;17.30;92.10
53876;DHT22;39789;53.216;5.624;2023-07-16T04:15:53;17.30;92.30
53876;DHT22;39789;53.216;5.624;2023-07-16T04:18:21;17.40;91.90
53876;DHT22;39789;53.216;5.624;2023-07-16T04:20:47;17.40;91.70
53876;DHT22;39789;53.216;5.624;2023-07-16T04:23:12;17.50;91.50
53876;DHT22;39789;53.216;5.624;2023-07-16T04:25:38;17.60;91.40
53876;DHT22;39789;53.216;5.624;2023-07-16T04:28:03;17.70;91.20
53876;DHT22;39789;53.216;5.624;2023-07-16T04:30:29;17.70;91.10
53876;DHT22;39789;53.216;5.624;2023-07-16T04:32:55;17.80;91.00
53876;DHT22;39789;53.216;5.624;2023-07-16T04:35:20;17.70;91.20
53876;DHT22;39789;53.216;5.624;2023-07-16T04:37:46;17.50;92.20
53876;DHT22;39789;53.216;5.624;2023-07-16T04:40:12;17.10;93.00
53876;DHT22;39789;53.216;5.624;2023-07-16T04:42:37;16.90;93.50
53876;DHT22;39789;53.216;5.624;2023-07-16T04:45:04;16.70;93.90
53876;DHT22;39789;53.216;5.624;2023-07-16T04:47:30;16.60;94.40
53876;DHT22;39789;53.216;5.624;2023-07-16T04:49:58;16.60;94.60
53876;DHT22;39789;53.216;5.624;2023-07-16T04:52:23;16.60;94.80
53876;DHT22;39789;53.216;5.624;2023-07-16T04:54:49;16.60;95.00
53876;DHT22;39789;53.216;5.624;2023-07-16T04:57:14;16.60;95.10
53876;DHT22;39789;53.216;5.624;2023-07-16T04:59:40;16.70;95.30
53876;DHT22;39789;53.216;5.624;2023-07-16T05:02:06;16.70;95.10
53876;DHT22;39789;53.216;5.624;2023-07-16T05:04:35;16.80;95.10
53876;DHT22;39789;53.216;5.624;2023-07-16T05:07:02;16.80;94.90
53876;DHT22;39789;53.216;5.624;2023-07-16T05:09:27;16.90;94.90
53876;DHT22;39789;53.216;5.624;2023-07-16T05:11:53;16.90;94.80
53876;DHT22;39789;53.216;5.624;2023-07-16T05:14:19;16.90;94.80
53876;DHT22;39789;53.216;5.624;2023-07-16T05:16:44;17.00;94.70
53876;DHT22;39789;53.216;5.624;2023-07-16T05:19:10;17.00;94.70
53876;DHT22;39789;53.216;5.624;2023-07-16T05:21:35;17.10;94.70
53876;DHT22;39789;53.216;5.624;2023-07-16T05:24:01;17.10;94.70
53876;DHT22;39789;53.216;5.624;2023-07-16T05:26:27;17.50;94.80
53876;DHT22;39789;53.216;5.624;2023-07-16T05:28:52;17.30;94.80
53876;DHT22;39789;53.216;5.624;2023-07-16T05:31:18;17.70;95.00
53876;DHT22;39789;53.216;5.624;2023-07-16T05:33:43;17.60;95.00
53876;DHT22;39789;53.216;5.624;2023-07-16T05:36:09;16.90;94.90
53876;DHT22;39789;53.216;5.624;2023-07-16T05:38:35;17.90;95.30
53876;DHT22;39789;53.216;5.624;2023-07-16T05:41:04;17.30;95.20
53876;DHT22;39789;53.216;5.624;2023-07-16T05:43:30;17.30;95.30
53876;DHT22;39789;53.216;5.624;2023-07-16T05:45:56;17.30;95.20
53876;DHT22;39789;53.216;5.624;2023-07-16T05:48:22;17.30;95.20
53876;DHT22;39789;53.216;5.624;2023-07-16T05:50:47;17.40;95.20
53876;DHT22;39789;53.216;5.624;2023-07-16T05:53:13;17.40;94.90
53876;DHT22;39789;53.216;5.624;2023-07-16T05:55:41;17.50;94.70
53876;DHT22;39789;53.216;5.624;2023-07-16T05:58:07;17.60;94.60
53876;DHT22;39789;53.216;5.624;2023-07-16T06:00:37;17.60;94.70
53876;DHT22;39789;53.216;5.624;2023-07-16T06:03:02;17.60;94.70
53876;DHT22;39789;53.216;5.624;2023-07-16T06:05:28;17.60;94.80
53876;DHT22;39789;53.216;5.624;2023-07-16T06:07:58;17.60;94.70
53876;DHT22;39789;53.216;5.624;2023-07-16T06:10:23;17.60;94.80
53876;DHT22;39789;53.216;5.624;2023-07-16T06:12:52;17.60;95.20
53876;DHT22;39789;53.216;5.624;2023-07-16T06:15:17;17.70;94.90
53876;DHT22;39789;53.216;5.624;2023-07-16T06:17:43;17.70;94.90
53876;DHT22;39789;53.216;5.624;2023-07-16T06:20:09;17.70;94.80
53876;DHT22;39789;53.216;5.624;2023-07-16T06:22:35;17.70;94.60
53876;DHT22;39789;53.216;5.624;2023-07-16T06:25:01;17.60;94.60
53876;DHT22;39789;53.216;5.624;2023-07-16T06:27:26;17.40;94.70
53876;DHT22;39789;53.216;5.624;2023-07-16T06:29:52;17.30;95.20
53876;DHT22;39789;53.216;5.624;2023-07-16T06:32:18;17.60;95.70
53876;DHT22;39789;53.216;5.624;2023-07-16T06:34:43;17.20;95.90
53876;DHT22;39789;53.216;5.624;2023-07-16T06:37:09;17.10;96.10
53876;DHT22;39789;53.216;5.624;2023-07-16T06:39:34;17.10;96.30
53876;DHT22;39789;53.216;5.624;2023-07-16T06:42:00;17.00;96.30
53876;DHT22;39789;53.216;5.624;2023-07-16T06:44:26;17.00;96.40
53876;DHT22;39789;53.216;5.624;2023-07-16T06:46:51;17.00;96.50
53876;DHT22;39789;53.216;5.624;2023-07-16T06:49:17;16.90;96.60
53876;DHT22;39789;53.216;5.624;2023-07-16T06:51:43;16.90;96.70
53876;DHT22;39789;53.216;5.624;2023-07-16T06:54:09;16.90;96.90
53876;DHT22;39789;53.216;5.624;2023-07-16T06:56:34;16.90;97.00
53876;DHT22;39789;53.216;5.624;2023-07-16T06:59:00;17.00;97.20
53876;DHT22;39789;53.216;5.624;2023-07-16T07:01:25;17.10;97.50
53876;DHT22;39789;53.216;5.624;2023-07-16T07:03:53;17.30;97.70
53876;DHT22;39789;53.216;5.624;2023-07-16T07:06:19;17.50;97.50
53876;DHT22;39789;53.216;5.624;2023-07-16T07:08:44;18.30;97.40
53876;DHT22;39789;53.216;5.624;2023-07-16T07:11:10;17.90;97.00
53876;DHT22;39789;53.216;5.624;2023-07-16T07:13:35;17.80;96.70
53876;DHT22;39789;53.216;5.624;2023-07-16T07:16:01;18.50;96.50
53876;DHT22;39789;53.216;5.624;2023-07-16T07:18:27;17.80;96.30
53876;DHT22;39789;53.216;5.624;2023-07-16T07:20:52;18.70;96.40
53876;DHT22;39789;53.216;5.624;2023-07-16T07:23:20;17.70;96.20
53876;DHT22;39789;53.216;5.624;2023-07-16T07:25:52;18.10;96.20
53876;DHT22;39789;53.216;5.624;2023-07-16T07:28:19;18.30;95.70
53876;DHT22;39789;53.216;5.624;2023-07-16T07:30:45;18.40;95.40
53876;DHT22;39789;53.216;5.624;2023-07-16T07:33:11;18.70;95.30
53876;DHT22;39789;53.216;5.624;2023-07-16T07:35:36;18.90;94.90
53876;DHT22;39789;53.216;5.624;2023-07-16T07:38:02;20.20;94.70
53876;DHT22;39789;53.216;5.624;2023-07-16T07:40:27;19.80;93.90
53876;DHT22;39789;53.216;5.624;2023-07-16T07:42:53;19.80;93.20
53876;DHT22;39789;53.216;5.624;2023-07-16T07:45:19;20.30;92.90
53876;DHT22;39789;53.216;5.624;2023-07-16T07:47:44;20.20;93.30
53876;DHT22;39789;53.216;5.624;2023-07-16T07:50:10;20.70;93.40
53876;DHT22;39789;53.216;5.624;2023-07-16T07:52:36;21.20;92.90
53876;DHT22;39789;53.216;5.624;2023-07-16T07:55:02;21.90;92.10
53876;DHT22;39789;53.216;5.624;2023-07-16T07:57:27;21.60;91.30
53876;DHT22;39789;53.216;5.624;2023-07-16T07:59:53;21.20;91.10
53876;DHT22;39789;53.216;5.624;2023-07-16T08:02:25;20.70;91.20
53876;DHT22;39789;53.216;5.624;2023-07-16T08:04:55;20.60;91.30
53876;DHT22;39789;53.216;5.624;2023-07-16T08:07:24;20.80;91.30
53876;DHT22;39789;53.216;5.624;2023-07-16T08:09:51;20.00;91.40
53876;DHT22;39789;53.216;5.624;2023-07-16T08:12:16;20.00;91.70
53876;DHT22;39789;53.216;5.624;2023-07-16T08:14:42;21.20;91.50
53876;DHT22;39789;53.216;5.624;2023-07-16T08:17:08;21.50;90.80
53876;DHT22;39789;53.216;5.624;2023-07-16T08:19:34;21.10;90.80
53876;DHT22;39789;53.216;5.624;2023-07-16T08:21:59;20.90;91.10
53876;DHT22;39789;53.216;5.624;2023-07-16T08:24:25;21.20;91.20
53876;DHT22;39789;53.216;5.624;2023-07-16T08:26:51;21.80;90.50
53876;DHT22;39789;53.216;5.624;2023-07-16T08:29:17;22.70;89.50
53876;DHT22;39789;53.216;5.624;2023-07-16T08:31:42;22.40;87.50
53876;DHT22;39789;53.216;5.624;2023-07-16T08:34:08;23.40;86.40
53876;DHT22;39789;53.216;5.624;2023-07-16T08:36:34;23.50;85.20
53876;DHT22;39789;53.216;5.624;2023-07-16T08:39:00;23.50;85.30
53876;DHT22;39789;53.216;5.624;2023-07-16T08:41:26;22.70;86.20
53876;DHT22;39789;53.216;5.624;2023-07-16T08:43:51;22.10;87.10
53876;DHT22;39789;53.216;5.624;2023-07-16T08:46:18;21.70;88.10
53876;DHT22;39789;53.216;5.624;2023-07-16T08:48:45;21.10;88.70
53876;DHT22;39789;53.216;5.624;2023-07-16T08:51:14;20.70;87.90
53876;DHT22;39789;53.216;5.624;2023-07-16T08:53:40;20.70;86.90
53876;DHT22;39789;53.216;5.624;2023-07-16T08:56:09;20.70;86.40
53876;DHT22;39789;53.216;5.624;2023-07-16T08:58:35;21.00;85.60
53876;DHT22;39789;53.216;5.624;2023-07-16T09:01:03;21.20;84.80
53876;DHT22;39789;53.216;5.624;2023-07-16T09:03:29;21.10;83.50
53876;DHT22;39789;53.216;5.624;2023-07-16T09:05:55;20.90;82.40
53876;DHT22;39789;53.216;5.624;2023-07-16T09:08:20;20.80;82.10
53876;DHT22;39789;53.216;5.624;2023-07-16T09:10:56;20.60;81.60
53876;DHT22;39789;53.216;5.624;2023-07-16T09:13:23;20.60;81.90
53876;DHT22;39789;53.216;5.624;2023-07-16T09:15:53;20.70;83.20
53876;DHT22;39789;53.216;5.624;2023-07-16T09:18:26;20.90;84.00
53876;DHT22;39789;53.216;5.624;2023-07-16T09:20:56;20.90;84.40
53876;DHT22;39789;53.216;5.624;2023-07-16T09:23:26;20.80;84.70
53876;DHT22;39789;53.216;5.624;2023-07-16T09:25:55;20.70;84.40
53876;DHT22;39789;53.216;5.624;2023-07-16T09:28:21;20.40;85.30
53876;DHT22;39789;53.216;5.624;2023-07-16T09:30:47;20.20;86.50
53876;DHT22;39789;53.216;5.624;2023-07-16T09:33:17;20.10;87.50
53876;DHT22;39789;53.216;5.624;2023-07-16T09:35:44;20.00;88.30
53876;DHT22;39789;53.216;5.624;2023-07-16T09:38:10;19.80;88.70
53876;DHT22;39789;53.216;5.624;2023-07-16T09:40:39;19.70;90.00
53876;DHT22;39789;53.216;5.624;2023-07-16T09:43:08;19.70;89.80
53876;DHT22;39789;53.216;5.624;2023-07-16T09:45:34;19.90;89.70
53876;DHT22;39789;53.216;5.624;2023-07-16T09:48:01;20.20;89.00
53876;DHT22;39789;53.216;5.624;2023-07-16T09:50:32;20.60;87.70
53876;DHT22;39789;53.216;5.624;2023-07-16T09:52:58;20.30;85.70
53876;DHT22;39789;53.216;5.624;2023-07-16T09:55:24;21.00;86.10
53876;DHT22;39789;53.216;5.624;2023-07-16T09:57:53;20.70;85.30
53876;DHT22;39789;53.216;5.624;2023-07-16T10:00:21;20.80;83.80
53876;DHT22;39789;53.216;5.624;2023-07-16T10:02:48;21.00;82.80
53876;DHT22;39789;53.216;5.624;2023-07-16T10:05:17;21.20;81.50
53876;DHT22;39789;53.216;5.624;2023-07-16T10:07:50;21.30;79.40
53876;DHT22;39789;53.216;5.624;2023-07-16T10:10:16;21.40;78.80
53876;DHT22;39789;53.216;5.624;2023-07-16T10:12:54;21.40;79.10
53876;DHT22;39789;53.216;5.624;2023-07-16T10:15:26;21.50;78.40
53876;DHT22;39789;53.216;5.624;2023-07-16T10:17:52;21.70;78.90
53876;DHT22;39789;53.216;5.624;2023-07-16T10:20:37;21.70;78.20
53876;DHT22;39789;53.216;5.624;2023-07-16T10:23:16;21.60;78.90
53876;DHT22;39789;53.216;5.624;2023-07-16T10:25:58;21.50;79.40
53876;DHT22;39789;53.216;5.624;2023-07-16T10:28:24;21.50;79.30
53876;DHT22;39789;53.216;5.624;2023-07-16T10:30:50;21.30;79.30
53876;DHT22;39789;53.216;5.624;2023-07-16T10:33:16;21.20;80.00
53876;DHT22;39789;53.216;5.624;2023-07-16T10:35:46;21.00;80.80
53876;DHT22;39789;53.216;5.624;2023-07-16T10:38:11;20.90;81.00
53876;DHT22;39789;53.216;5.624;2023-07-16T10:40:41;21.00;81.80
53876;DHT22;39789;53.216;5.624;2023-07-16T10:43:08;20.50;82.10
53876;DHT22;39789;53.216;5.624;2023-07-16T10:45:33;20.40;82.40
53876;DHT22;39789;53.216;5.624;2023-07-16T10:47:59;20.20;82.60
53876;DHT22;39789;53.216;5.624;2023-07-16T10:50:25;20.10;83.90
53876;DHT22;39789;53.216;5.624;2023-07-16T10:52:56;20.20;84.30
53876;DHT22;39789;53.216;5.624;2023-07-16T10:55:22;20.30;83.40
53876;DHT22;39789;53.216;5.624;2023-07-16T10:57:49;20.40;83.20
53876;DHT22;39789;53.216;5.624;2023-07-16T11:00:16;20.50;82.60
53876;DHT22;39789;53.216;5.624;2023-07-16T11:02:43;20.60;82.00
53876;DHT22;39789;53.216;5.624;2023-07-16T11:05:13;20.70;81.00
53876;DHT22;39789;53.216;5.624;2023-07-16T11:07:47;20.80;80.00
53876;DHT22;39789;53.216;5.624;2023-07-16T11:10:15;21.00;80.30
53876;DHT22;39789;53.216;5.624;2023-07-16T11:12:42;21.00;79.30
53876;DHT22;39789;53.216;5.624;2023-07-16T11:15:08;21.10;78.40
53876;DHT22;39789;53.216;5.624;2023-07-16T11:17:37;21.20;76.90
53876;DHT22;39789;53.216;5.624;2023-07-16T11:20:04;21.40;75.90
53876;DHT22;39789;53.216;5.624;2023-07-16T11:22:36;21.20;75.80
53876;DHT22;39789;53.216;5.624;2023-07-16T11:25:02;21.30;75.80
53876;DHT22;39789;53.216;5.624;2023-07-16T11:27:30;21.40;75.60
53876;DHT22;39789;53.216;5.624;2023-07-16T11:29:58;21.50;74.00
53876;DHT22;39789;53.216;5.624;2023-07-16T11:35:05;21.50;71.80
53876;DHT22;39789;53.216;5.624;2023-07-16T11:37:33;21.40;71.60
53876;DHT22;39789;53.216;5.624;2023-07-16T11:40:01;21.30;71.70
53876;DHT22;39789;53.216;5.624;2023-07-16T11:42:29;21.20;72.20
53876;DHT22;39789;53.216;5.624;2023-07-16T11:44:56;21.20;72.40
53876;DHT22;39789;53.216;5.624;2023-07-16T11:47:22;21.30;72.60
53876;DHT22;39789;53.216;5.624;2023-07-16T11:49:51;21.30;72.20
53876;DHT22;39789;53.216;5.624;2023-07-16T11:52:28;21.30;71.30
53876;DHT22;39789;53.216;5.624;2023-07-16T11:54:57;21.60;71.30
53876;DHT22;39789;53.216;5.624;2023-07-16T11:57:27;21.20;72.30
53876;DHT22;39789;53.216;5.624;2023-07-16T11:59:53;21.10;72.40
53876;DHT22;39789;53.216;5.624;2023-07-16T12:02:19;21.00;72.60
53876;DHT22;39789;53.216;5.624;2023-07-16T12:04:45;20.90;72.90
53876;DHT22;39789;53.216;5.624;2023-07-16T12:07:11;20.70;73.90
53876;DHT22;39789;53.216;5.624;2023-07-16T12:09:36;20.50;74.80
53876;DHT22;39789;53.216;5.624;2023-07-16T12:12:02;20.80;75.40
53876;DHT22;39789;53.216;5.624;2023-07-16T12:14:28;20.20;74.50
53876;DHT22;39789;53.216;5.624;2023-07-16T12:16:53;20.20;75.30
53876;DHT22;39789;53.216;5.624;2023-07-16T12:19:21;20.30;77.80
53876;DHT22;39789;53.216;5.624;2023-07-16T12:21:47;19.70;79.70
53876;DHT22;39789;53.216;5.624;2023-07-16T12:24:13;19.20;81.40
53876;DHT22;39789;53.216;5.624;2023-07-16T12:26:38;19.30;81.90
53876;DHT22;39789;53.216;5.624;2023-07-16T12:29:04;19.50;81.60
53876;DHT22;39789;53.216;5.624;2023-07-16T12:31:30;19.80;80.60
53876;DHT22;39789;53.216;5.624;2023-07-16T12:34:00;20.10;79.80
53876;DHT22;39789;53.216;5.624;2023-07-16T12:36:27;20.40;78.70
53876;DHT22;39789;53.216;5.624;2023-07-16T12:38:53;21.40;78.30
53876;DHT22;39789;53.216;5.624;2023-07-16T12:41:18;21.00;77.10
53876;DHT22;39789;53.216;5.624;2023-07-16T12:43:45;21.40;77.00
53876;DHT22;39789;53.216;5.624;2023-07-16T12:46:11;20.80;76.60
53876;DHT22;39789;53.216;5.624;2023-07-16T12:48:36;20.70;76.30
53876;DHT22;39789;53.216;5.624;2023-07-16T12:51:02;20.70;76.40
53876;DHT22;39789;53.216;5.624;2023-07-16T12:53:28;20.80;76.50
53876;DHT22;39789;53.216;5.624;2023-07-16T12:55:54;20.70;75.70
53876;DHT22;39789;53.216;5.624;2023-07-16T12:58:19;20.50;75.00
53876;DHT22;39789;53.216;5.624;2023-07-16T13:00:45;20.30;75.50
53876;DHT22;39789;53.216;5.624;2023-07-16T13:03:10;20.00;76.60
53876;DHT22;39789;53.216;5.624;2023-07-16T13:05:40;19.70;78.10
53876;DHT22;39789;53.216;5.624;2023-07-16T13:08:06;19.50;79.30
53876;DHT22;39789;53.216;5.624;2023-07-16T13:10:32;19.40;80.00
53876;DHT22;39789;53.216;5.624;2023-07-16T13:12:58;19.40;80.60
53876;DHT22;39789;53.216;5.624;2023-07-16T13:15:23;19.40;80.40
53876;DHT22;39789;53.216;5.624;2023-07-16T13:17:49;19.40;80.20
53876;DHT22;39789;53.216;5.624;2023-07-16T13:20:15;19.60;80.10
53876;DHT22;39789;53.216;5.624;2023-07-16T13:22:40;19.70;79.70
53876;DHT22;39789;53.216;5.624;2023-07-16T13:25:06;19.80;79.40
53876;DHT22;39789;53.216;5.624;2023-07-16T13:27:32;19.90;78.90
53876;DHT22;39789;53.216;5.624;2023-07-16T13:29:58;20.00;78.50
53876;DHT22;39789;53.216;5.624;2023-07-16T13:32:23;20.20;78.60
53876;DHT22;39789;53.216;5.624;2023-07-16T13:34:49;20.40;78.40
53876;DHT22;39789;53.216;5.624;2023-07-16T13:37:14;20.70;78.40
53876;DHT22;39789;53.216;5.624;2023-07-16T13:39:40;20.60;78.00
53876;DHT22;39789;53.216;5.624;2023-07-16T13:42:06;20.90;78.10
53876;DHT22;39789;53.216;5.624;2023-07-16T13:44:34;21.20;77.70
53876;DHT22;39789;53.216;5.624;2023-07-16T13:47:00;21.40;76.00
53876;DHT22;39789;53.216;5.624;2023-07-16T13:49:26;21.50;75.20
53876;DHT22;39789;53.216;5.624;2023-07-16T13:51:51;21.50;74.20
53876;DHT22;39789;53.216;5.624;2023-07-16T13:54:17;21.30;74.00
53876;DHT22;39789;53.216;5.624;2023-07-16T13:56:42;21.30;74.10
53876;DHT22;39789;53.216;5.624;2023-07-16T13:59:08;21.90;73.90
53876;DHT22;39789;53.216;5.624;2023-07-16T14:01:40;22.40;73.90
53876;DHT22;39789;53.216;5.624;2023-07-16T14:04:06;21.60;72.10
53876;DHT22;39789;53.216;5.624;2023-07-16T14:06:31;21.60;71.10
53876;DHT22;39789;53.216;5.624;2023-07-16T14:08:58;21.60;70.50
53876;DHT22;39789;53.216;5.624;2023-07-16T14:11:24;21.60;70.60
53876;DHT22;39789;53.216;5.624;2023-07-16T14:13:50;21.60;70.50
53876;DHT22;39789;53.216;5.624;2023-07-16T14:16:17;21.60;70.30
53876;DHT22;39789;53.216;5.624;2023-07-16T14:18:43;21.60;69.60
53876;DHT22;39789;53.216;5.624;2023-07-16T14:21:09;21.50;69.30
53876;DHT22;39789;53.216;5.624;2023-07-16T14:23:34;21.40;69.20
53876;DHT22;39789;53.216;5.624;2023-07-16T14:26:00;21.40;69.10
53876;DHT22;39789;53.216;5.624;2023-07-16T14:28:25;21.30;69.30
53876;DHT22;39789;53.216;5.624;2023-07-16T14:30:51;21.20;69.20
53876;DHT22;39789;53.216;5.624;2023-07-16T14:33:17;21.20;69.90
53876;DHT22;39789;53.216;5.624;2023-07-16T14:35:42;21.20;70.50
53876;DHT22;39789;53.216;5.624;2023-07-16T14:38:08;21.20;70.40
53876;DHT22;39789;53.216;5.624;2023-07-16T14:40:33;21.10;69.90
53876;DHT22;39789;53.216;5.624;2023-07-16T14:42:59;21.10;69.70
53876;DHT22;39789;53.216;5.624;2023-07-16T14:45:25;21.20;69.80
53876;DHT22;39789;53.216;5.624;2023-07-16T14:47:50;21.00;69.80
53876;DHT22;39789;53.216;5.624;2023-07-16T14:50:16;20.90;70.10
53876;DHT22;39789;53.216;5.624;2023-07-16T14:52:42;20.90;70.50
53876;DHT22;39789;53.216;5.624;2023-07-16T14:55:07;20.80;70.50
53876;DHT22;39789;53.216;5.624;2023-07-16T14:57:33;20.80;70.40
53876;DHT22;39789;53.216;5.624;2023-07-16T14:59:59;20.80;70.80
53876;DHT22;39789;53.216;5.624;2023-07-16T15:02:25;20.80;70.30
53876;DHT22;39789;53.216;5.624;2023-07-16T15:04:51;21.10;70.40
53876;DHT22;39789;53.216;5.624;2023-07-16T15:07:16;21.20;70.20
53876;DHT22;39789;53.216;5.624;2023-07-16T15:09:42;21.20;69.60
53876;DHT22;39789;53.216;5.624;2023-07-16T15:12:08;21.50;69.30
53876;DHT22;39789;53.216;5.624;2023-07-16T15:14:34;21.00;69.50
53876;DHT22;39789;53.216;5.624;2023-07-16T15:17:00;20.90;69.70
53876;DHT22;39789;53.216;5.624;2023-07-16T15:19:25;20.80;69.90
53876;DHT22;39789;53.216;5.624;2023-07-16T15:21:51;20.70;70.30
53876;DHT22;39789;53.216;5.624;2023-07-16T15:24:16;20.90;70.70
53876;DHT22;39789;53.216;5.624;2023-07-16T15:26:42;21.00;69.80
53876;DHT22;39789;53.216;5.624;2023-07-16T15:29:08;21.00;69.50
53876;DHT22;39789;53.216;5.624;2023-07-16T15:31:33;20.90;69.70
53876;DHT22;39789;53.216;5.624;2023-07-16T15:33:59;20.80;69.90